Time;durP1;ratioP1;P1;durP2;ratioP2;P2;SDS_P1;SDS_P2;PMS_P1;PMS_P2;Temp;Humidity;BMP_temperature;BMP_pressure;BME280_temperature;BME280_humidity;BME280_pressure;Samples;Min_cycle;Max_cycle;Signal;HPM_P1;HPM_P2
2022/05/02 00:00:49;;;;;;;;;;;11.30;43.40;;;;;;5068297;28;19917;-87
2022/05/02 00:03:15;;;;;;;;;;;11.20;43.40;;;;;;5091530;28;19920;-87
2022/05/02 00:05:41;;;;;;;;;;;11.20;43.40;;;;;;5069951;28;19969;-87
2022/05/02 00:08:06;;;;;;;;;;;11.20;43.40;;;;;;5089944;28;19912;-87
2022/05/02 00:10:33;;;;;;;;;;;11.10;43.50;;;;;;5066624;28;19962;-86
2022/05/02 00:12:58;;;;;;;;;;;11.10;43.60;;;;;;5075110;28;19912;-86
2022/05/02 00:15:24;;;;;;;;;;;11.10;43.70;;;;;;5093622;28;19939;-87
2022/05/02 00:17:59;;;;;;;;;;;11.00;43.80;;;;;;5092620;28;19962;-87
2022/05/02 00:20:34;;;;;;;;;;;11.00;43.90;;;;;;5092887;28;19955;-86
2022/05/02 00:23:01;;;;;;;;;;;11.00;44.10;;;;;;5093017;28;19916;-87
2022/05/02 00:25:27;;;;;;;;;;;11.00;44.20;;;;;;5074671;28;19984;-86
2022/05/02 00:27:53;;;;;;;;;;;11.00;44.50;;;;;;5074571;28;19916;-87
2022/05/02 00:30:18;;;;;;;;;;;11.00;44.50;;;;;;5063282;28;19924;-86
2022/05/02 00:32:44;;;;;;;;;;;11.00;44.80;;;;;;5075527;28;19920;-87
2022/05/02 00:35:10;;;;;;;;;;;11.00;44.80;;;;;;5089238;28;19916;-86
2022/05/02 00:37:36;;;;;;;;;;;11.00;44.80;;;;;;5092587;28;19912;-85
2022/05/02 00:40:02;;;;;;;;;;;11.10;44.70;;;;;;5074236;28;19931;-87
2022/05/02 00:42:28;;;;;;;;;;;11.10;44.70;;;;;;5073971;28;20368;-87
2022/05/02 00:44:53;;;;;;;;;;;11.10;44.60;;;;;;5092543;28;19916;-88
2022/05/02 00:47:20;;;;;;;;;;;11.20;44.60;;;;;;5091294;28;19934;-87
2022/05/02 00:49:46;;;;;;;;;;;11.20;44.60;;;;;;5073732;28;19916;-87
2022/05/02 00:52:12;;;;;;;;;;;11.20;44.70;;;;;;5073756;28;20007;-86
2022/05/02 00:54:37;;;;;;;;;;;11.20;44.70;;;;;;5092134;28;19927;-87
2022/05/02 00:57:04;;;;;;;;;;;11.20;44.70;;;;;;5091199;28;19916;-86
2022/05/02 00:59:30;;;;;;;;;;;11.20;44.70;;;;;;5074152;28;19955;-86
2022/05/02 01:01:55;;;;;;;;;;;11.30;44.80;;;;;;5089959;28;19959;-86
2022/05/02 01:04:21;;;;;;;;;;;11.30;44.80;;;;;;5084397;28;19924;-86
2022/05/02 01:09:32;;;;;;;;;;;11.30;44.80;;;;;;5091589;28;19966;-87
2022/05/02 01:11:57;;;;;;;;;;;11.20;44.90;;;;;;5081235;28;19919;-86
2022/05/02 01:14:23;;;;;;;;;;;11.20;44.90;;;;;;5073665;28;19920;-87
2022/05/02 01:16:49;;;;;;;;;;;11.20;44.90;;;;;;5084827;28;20359;-87
2022/05/02 01:19:14;;;;;;;;;;;11.20;45.00;;;;;;5074733;28;19979;-87
2022/05/02 01:21:43;;;;;;;;;;;11.20;45.00;;;;;;5091234;28;19921;-88
2022/05/02 01:24:08;;;;;;;;;;;11.10;45.00;;;;;;5091917;28;19922;-87
2022/05/02 01:26:33;;;;;;;;;;;11.10;45.00;;;;;;5073711;28;19912;-86
2022/05/02 01:29:00;;;;;;;;;;;11.10;45.10;;;;;;5091527;28;19916;-86
2022/05/02 01:31:25;;;;;;;;;;;11.10;45.10;;;;;;5089467;28;19916;-86
2022/05/02 01:33:51;;;;;;;;;;;11.00;45.40;;;;;;5074173;28;19923;-86
2022/05/02 01:36:17;;;;;;;;;;;11.00;45.40;;;;;;5089580;28;19919;-86
2022/05/02 01:38:43;;;;;;;;;;;11.00;45.40;;;;;;5087537;28;19921;-85
2022/05/02 01:41:09;;;;;;;;;;;11.00;45.40;;;;;;5063521;28;19927;-86
2022/05/02 01:43:35;;;;;;;;;;;10.90;45.50;;;;;;5085620;28;19922;-86
2022/05/02 01:46:01;;;;;;;;;;;10.90;45.60;;;;;;5086901;28;19912;-86
2022/05/02 01:48:27;;;;;;;;;;;10.80;45.70;;;;;;5070089;28;20355;-86
2022/05/02 01:50:53;;;;;;;;;;;10.80;45.90;;;;;;5089257;28;19917;-87
2022/05/02 01:53:18;;;;;;;;;;;10.80;46.20;;;;;;5095000;28;19912;-86
2022/05/02 01:55:44;;;;;;;;;;;10.80;46.30;;;;;;5095861;28;19934;-86
2022/05/02 01:58:09;;;;;;;;;;;10.80;46.30;;;;;;5094755;28;19913;-86
2022/05/02 02:00:35;;;;;;;;;;;10.80;46.50;;;;;;5077630;28;19916;-86
2022/05/02 02:03:00;;;;;;;;;;;10.80;46.50;;;;;;5094977;28;20356;-86
2022/05/02 02:08:10;;;;;;;;;;;10.80;46.40;;;;;;5095178;28;19919;-87
2022/05/02 02:10:35;;;;;;;;;;;10.70;46.90;;;;;;5072120;28;19912;-87
2022/05/02 02:13:01;;;;;;;;;;;10.70;46.70;;;;;;5089850;28;19912;-87
2022/05/02 02:15:26;;;;;;;;;;;10.70;47.20;;;;;;5094498;28;19912;-87
2022/05/02 02:17:52;;;;;;;;;;;10.70;48.10;;;;;;5093921;28;19913;-87
2022/05/02 02:20:17;;;;;;;;;;;10.60;48.60;;;;;;5094798;28;19920;-86
2022/05/02 02:22:43;;;;;;;;;;;10.60;48.30;;;;;;5090135;28;19927;-87
2022/05/02 02:25:08;;;;;;;;;;;10.60;47.90;;;;;;5076098;28;20340;-86
2022/05/02 02:27:34;;;;;;;;;;;10.50;47.70;;;;;;5075912;28;19919;-86
2022/05/02 02:29:59;;;;;;;;;;;10.50;47.60;;;;;;5095548;28;19923;-86
2022/05/02 02:32:25;;;;;;;;;;;10.40;47.50;;;;;;5068920;28;19920;-86
2022/05/02 02:34:51;;;;;;;;;;;10.40;47.50;;;;;;5094531;28;20360;-87
2022/05/02 02:37:16;;;;;;;;;;;10.40;47.50;;;;;;5094397;28;20654;-87
2022/05/02 02:39:43;;;;;;;;;;;10.30;47.40;;;;;;5076205;28;19922;-86
2022/05/02 02:42:08;;;;;;;;;;;10.30;47.60;;;;;;5095197;28;19960;-86
2022/05/02 02:44:34;;;;;;;;;;;10.30;47.60;;;;;;5077426;28;20439;-86
2022/05/02 02:46:59;;;;;;;;;;;10.30;47.50;;;;;;5077748;28;19912;-86
2022/05/02 02:49:25;;;;;;;;;;;10.30;47.70;;;;;;5095303;28;19920;-87
2022/05/02 02:51:50;;;;;;;;;;;10.30;47.70;;;;;;5095624;28;19916;-87
2022/05/02 02:54:16;;;;;;;;;;;10.40;47.70;;;;;;5094797;28;19922;-87
2022/05/02 02:56:41;;;;;;;;;;;10.40;47.80;;;;;;5076916;28;19909;-87
2022/05/02 02:59:06;;;;;;;;;;;10.50;47.90;;;;;;5095208;28;20527;-86
2022/05/02 03:01:32;;;;;;;;;;;10.60;47.90;;;;;;5094870;28;20286;-85
2022/05/02 03:03:58;;;;;;;;;;;10.60;47.90;;;;;;5095035;28;19927;-86
2022/05/02 03:06:24;;;;;;;;;;;10.70;48.00;;;;;;5076954;28;20243;-86
2022/05/02 03:08:50;;;;;;;;;;;10.70;47.90;;;;;;5088239;28;19920;-86
2022/05/02 03:11:15;;;;;;;;;;;10.80;48.50;;;;;;5091558;28;19919;-85
2022/05/02 03:13:41;;;;;;;;;;;10.80;48.20;;;;;;5087082;28;19921;-86
2022/05/02 03:16:07;;;;;;;;;;;10.90;48.10;;;;;;5092720;28;20275;-86
2022/05/02 03:18:34;;;;;;;;;;;10.90;48.70;;;;;;5086325;28;19924;-86
2022/05/02 03:20:59;;;;;;;;;;;11.00;48.40;;;;;;5074149;28;21583;-86
2022/05/02 03:23:26;;;;;;;;;;;11.00;48.10;;;;;;5067044;28;19920;-86
2022/05/02 03:25:51;;;;;;;;;;;11.00;47.90;;;;;;5076082;28;19918;-86
2022/05/02 03:28:17;;;;;;;;;;;11.00;47.80;;;;;;5073758;28;20003;-86
2022/05/02 03:30:43;;;;;;;;;;;10.90;47.60;;;;;;5075989;28;19916;-86
2022/05/02 03:33:08;;;;;;;;;;;10.80;47.50;;;;;;5075222;28;19973;-87
2022/05/02 03:35:34;;;;;;;;;;;10.80;47.50;;;;;;5086280;28;20448;-86
2022/05/02 03:37:59;;;;;;;;;;;10.70;47.60;;;;;;5094001;28;19919;-86
2022/05/02 03:40:25;;;;;;;;;;;10.70;47.80;;;;;;5093360;28;19930;-87
2022/05/02 03:42:50;;;;;;;;;;;10.80;48.00;;;;;;5094550;28;19935;-88
2022/05/02 03:45:16;;;;;;;;;;;10.80;48.10;;;;;;5074269;28;19924;-86
2022/05/02 03:47:41;;;;;;;;;;;11.00;48.20;;;;;;5093732;28;19956;-86
2022/05/02 03:50:07;;;;;;;;;;;11.00;48.20;;;;;;5092249;28;19917;-88
2022/05/02 03:52:33;;;;;;;;;;;11.20;48.20;;;;;;5068403;28;19916;-88
2022/05/02 03:54:58;;;;;;;;;;;11.30;48.20;;;;;;5088972;28;20362;-88
2022/05/02 03:57:23;;;;;;;;;;;11.40;48.20;;;;;;5091830;28;19920;-88
2022/05/02 03:59:49;;;;;;;;;;;11.60;48.10;;;;;;5094041;28;19924;-88
2022/05/02 04:02:14;;;;;;;;;;;11.70;48.10;;;;;;5074253;28;19912;-87
2022/05/02 04:04:40;;;;;;;;;;;11.80;48.10;;;;;;5066553;28;19927;-87
2022/05/02 04:07:06;;;;;;;;;;;11.90;48.10;;;;;;5074930;28;19912;-88
2022/05/02 04:09:31;;;;;;;;;;;11.90;48.00;;;;;;5064618;28;19948;-87
2022/05/02 04:11:56;;;;;;;;;;;12.00;48.00;;;;;;5081748;28;19995;-87
2022/05/02 04:14:22;;;;;;;;;;;12.20;47.90;;;;;;5075385;28;19954;-87
2022/05/02 04:16:49;;;;;;;;;;;12.20;47.80;;;;;;5069414;28;20261;-87
2022/05/02 04:19:15;;;;;;;;;;;12.30;47.70;;;;;;5092059;28;19999;-86
2022/05/02 04:21:41;;;;;;;;;;;12.40;47.60;;;;;;5067375;28;19920;-86
2022/05/02 04:24:07;;;;;;;;;;;12.50;47.60;;;;;;5073930;28;19939;-87
2022/05/02 04:26:32;;;;;;;;;;;12.50;47.60;;;;;;5085830;28;19916;-87
2022/05/02 04:28:58;;;;;;;;;;;12.60;47.50;;;;;;5093744;28;19954;-88
2022/05/02 04:31:23;;;;;;;;;;;12.70;47.50;;;;;;5068241;28;20346;-87
2022/05/02 04:33:48;;;;;;;;;;;12.80;47.60;;;;;;5083748;28;19920;-86
2022/05/02 04:36:14;;;;;;;;;;;12.80;47.50;;;;;;5074662;28;19912;-87
2022/05/02 04:38:39;;;;;;;;;;;12.80;47.40;;;;;;5075725;28;19999;-87
2022/05/02 04:41:05;;;;;;;;;;;12.90;47.40;;;;;;5093540;28;19963;-86
2022/05/02 04:43:30;;;;;;;;;;;13.00;47.40;;;;;;5093171;28;19923;-87
2022/05/02 04:45:56;;;;;;;;;;;13.10;47.30;;;;;;5074387;28;19935;-87
2022/05/02 04:48:21;;;;;;;;;;;13.10;47.30;;;;;;5070887;28;20046;-86
2022/05/02 04:50:47;;;;;;;;;;;13.10;47.30;;;;;;5093181;28;19958;-87
2022/05/02 04:53:12;;;;;;;;;;;13.10;47.30;;;;;;5083608;28;19939;-88
2022/05/02 04:55:38;;;;;;;;;;;13.10;47.30;;;;;;5081420;28;19916;-86
2022/05/02 04:58:03;;;;;;;;;;;13.10;47.30;;;;;;5082460;28;19924;-86
2022/05/02 05:00:29;;;;;;;;;;;13.00;47.40;;;;;;5079598;28;19916;-86
2022/05/02 05:02:54;;;;;;;;;;;13.00;47.50;;;;;;5094247;28;19913;-86
2022/05/02 05:05:30;;;;;;;;;;;13.10;47.50;;;;;;5083583;28;19920;-86
2022/05/02 05:07:55;;;;;;;;;;;13.10;47.70;;;;;;5074704;28;19923;-86
2022/05/02 05:10:21;;;;;;;;;;;13.10;47.80;;;;;;5105466;28;19916;-86
2022/05/02 05:12:46;;;;;;;;;;;13.20;48.10;;;;;;5084620;28;19912;-87
2022/05/02 05:18:15;;;;;;;;;;;13.50;48.70;;;;;;5093075;28;20390;-87
2022/05/02 05:20:59;;;;;;;;;;;13.70;49.00;;;;;;5082083;28;19916;-87
2022/05/02 05:23:24;;;;;;;;;;;14.10;49.70;;;;;;5082760;28;20352;-87
2022/05/02 05:25:58;;;;;;;;;;;14.50;50.50;;;;;;5093162;28;19919;-86
2022/05/02 05:28:42;;;;;;;;;;;14.90;50.60;;;;;;5093373;28;19947;-86
2022/05/02 05:31:07;;;;;;;;;;;15.30;50.50;;;;;;5088520;28;19918;-86
2022/05/02 05:33:52;;;;;;;;;;;15.70;49.50;;;;;;5080088;28;19995;-86
2022/05/02 05:36:23;;;;;;;;;;;15.80;48.80;;;;;;5084101;28;19912;-86
2022/05/02 05:38:58;;;;;;;;;;;16.00;48.30;;;;;;5083327;28;19921;-86
2022/05/02 05:41:26;;;;;;;;;;;16.00;47.90;;;;;;5082506;28;19916;-86
2022/05/02 05:44:05;;;;;;;;;;;16.20;48.30;;;;;;5087473;28;20014;-88
2022/05/02 05:46:33;;;;;;;;;;;16.70;49.00;;;;;;5094300;28;19912;-86
2022/05/02 05:49:11;;;;;;;;;;;17.10;49.60;;;;;;5073090;28;19946;-87
2022/05/02 05:51:48;;;;;;;;;;;17.70;49.50;;;;;;5092864;28;21489;-87
2022/05/02 05:54:26;;;;;;;;;;;18.30;49.40;;;;;;5091507;28;19927;-87
2022/05/02 05:56:52;;;;;;;;;;;18.90;48.80;;;;;;5094168;28;19954;-87
2022/05/02 05:59:28;;;;;;;;;;;19.60;48.10;;;;;;5089073;28;19926;-91
2022/05/02 06:02:14;;;;;;;;;;;20.20;47.40;;;;;;5069326;28;19975;-86
2022/05/02 06:04:41;;;;;;;;;;;20.80;46.70;;;;;;5085825;28;19970;-85
2022/05/02 06:07:06;;;;;;;;;;;21.50;45.70;;;;;;5079324;28;20461;-88
2022/05/02 06:09:32;;;;;;;;;;;22.00;44.70;;;;;;5077915;28;19920;-87
2022/05/02 06:11:59;;;;;;;;;;;22.60;43.90;;;;;;5090659;28;19912;-87
2022/05/02 06:14:29;;;;;;;;;;;23.10;42.90;;;;;;5086678;28;20378;-87
2022/05/02 06:19:41;;;;;;;;;;;24.20;41.60;;;;;;5087203;28;20414;-87
2022/05/02 06:22:07;;;;;;;;;;;24.80;40.60;;;;;;5078605;28;19920;-89
2022/05/02 06:24:36;;;;;;;;;;;25.20;39.50;;;;;;5090758;28;20478;-87
2022/05/02 06:27:02;;;;;;;;;;;25.70;38.40;;;;;;5072992;28;19970;-89
2022/05/02 06:29:28;;;;;;;;;;;26.20;37.70;;;;;;5079219;28;19977;-89
2022/05/02 06:31:55;;;;;;;;;;;26.70;36.90;;;;;;5088224;28;20387;-89
2022/05/02 06:34:30;;;;;;;;;;;27.10;35.90;;;;;;5094353;28;19965;-87
2022/05/02 06:36:56;;;;;;;;;;;27.60;34.50;;;;;;5080643;28;19912;-88
2022/05/02 06:39:41;;;;;;;;;;;28.00;33.10;;;;;;5080193;28;19921;-87
2022/05/02 06:42:29;;;;;;;;;;;28.30;32.30;;;;;;5088838;28;19927;-87
2022/05/02 06:45:01;;;;;;;;;;;28.40;31.60;;;;;;5083505;28;19932;-87
2022/05/02 06:47:36;;;;;;;;;;;28.40;31.00;;;;;;5079188;28;19916;-87
2022/05/02 06:50:02;;;;;;;;;;;28.30;30.10;;;;;;5091464;28;19916;-87
2022/05/02 06:52:32;;;;;;;;;;;28.20;30.10;;;;;;5081442;28;19915;-86
2022/05/02 06:55:04;;;;;;;;;;;28.10;29.60;;;;;;5092621;28;19944;-86
2022/05/02 06:57:51;;;;;;;;;;;27.90;29.70;;;;;;5090067;28;19916;-86
2022/05/02 07:00:17;;;;;;;;;;;27.70;30.00;;;;;;5090713;28;19934;-87
2022/05/02 07:02:46;;;;;;;;;;;27.60;30.00;;;;;;5074871;28;19921;-88
2022/05/02 07:05:22;;;;;;;;;;;27.50;29.80;;;;;;5092456;28;19916;-86
2022/05/02 07:07:57;;;;;;;;;;;27.40;29.70;;;;;;5088182;28;19916;-86
2022/05/02 07:10:25;;;;;;;;;;;27.30;29.70;;;;;;5074953;28;19927;-86
2022/05/02 07:12:56;;;;;;;;;;;27.20;29.70;;;;;;5092859;28;19998;-87
2022/05/02 07:15:23;;;;;;;;;;;27.10;29.80;;;;;;5090382;28;19995;-86
2022/05/02 07:17:55;;;;;;;;;;;27.00;29.40;;;;;;5081275;28;20459;-86
2022/05/02 07:20:46;;;;;;;;;;;26.90;29.00;;;;;;5089629;28;19928;-86
2022/05/02 07:23:28;;;;;;;;;;;26.70;29.20;;;;;;5077659;28;19912;-86
2022/05/02 07:26:00;;;;;;;;;;;26.50;29.00;;;;;;5090794;28;20334;-87
2022/05/02 07:28:45;;;;;;;;;;;26.10;28.80;;;;;;5089935;28;19916;-87
2022/05/02 07:31:20;;;;;;;;;;;25.80;28.80;;;;;;5091769;28;19916;-88
2022/05/02 07:33:48;;;;;;;;;;;25.70;29.30;;;;;;5091677;28;20335;-86
2022/05/02 07:36:15;;;;;;;;;;;25.70;29.70;;;;;;5078854;28;19966;-88
2022/05/02 07:38:41;;;;;;;;;;;25.80;29.80;;;;;;5079495;28;20429;-86
2022/05/02 07:41:23;;;;;;;;;;;26.20;29.90;;;;;;5081215;28;19965;-86
2022/05/02 07:43:54;;;;;;;;;;;26.80;29.80;;;;;;5080676;28;19917;-86
2022/05/02 07:46:23;;;;;;;;;;;27.50;29.40;;;;;;5091956;28;19923;-88
2022/05/02 07:48:50;;;;;;;;;;;28.30;28.60;;;;;;5091686;28;19916;-85
2022/05/02 07:51:15;;;;;;;;;;;28.90;27.30;;;;;;5081805;28;19912;-87
2022/05/02 07:53:42;;;;;;;;;;;29.60;26.80;;;;;;5081559;28;19943;-87
2022/05/02 07:56:09;;;;;;;;;;;30.20;25.70;;;;;;5091580;28;19923;-87
2022/05/02 07:58:34;;;;;;;;;;;30.80;24.50;;;;;;5075017;28;19920;-87
2022/05/02 08:01:00;;;;;;;;;;;31.20;24.60;;;;;;5081423;28;19970;-86
2022/05/02 08:03:27;;;;;;;;;;;31.70;24.00;;;;;;5079526;28;19920;-87
2022/05/02 08:05:55;;;;;;;;;;;32.10;23.70;;;;;;5091782;28;20350;-87
2022/05/02 08:08:40;;;;;;;;;;;32.50;23.30;;;;;;5086621;28;20035;-87
2022/05/02 08:11:13;;;;;;;;;;;32.80;22.50;;;;;;5088392;28;19923;-87
2022/05/02 08:13:46;;;;;;;;;;;33.20;22.30;;;;;;5078877;28;20386;-87
2022/05/02 08:16:25;;;;;;;;;;;33.50;21.30;;;;;;5091257;28;19924;-87
2022/05/02 08:18:50;;;;;;;;;;;33.70;21.00;;;;;;5088470;28;19920;-87
2022/05/02 08:21:22;;;;;;;;;;;34.00;20.80;;;;;;5078647;28;20382;-87
2022/05/02 08:29:40;;;;;;;;;;;34.50;20.50;;;;;;5091359;28;20033;-87
2022/05/02 08:32:07;;;;;;;;;;;34.90;20.80;;;;;;5076327;28;19920;-87
2022/05/02 08:34:39;;;;;;;;;;;35.10;19.30;;;;;;5091116;28;20322;-87
2022/05/02 08:37:14;;;;;;;;;;;35.10;19.30;;;;;;5076766;28;20423;-87
2022/05/02 08:39:59;;;;;;;;;;;35.20;19.20;;;;;;5090905;28;20014;-87
2022/05/02 08:42:25;;;;;;;;;;;35.30;19.20;;;;;;5047322;28;19917;-88
2022/05/02 08:45:05;;;;;;;;;;;35.20;19.30;;;;;;5082048;28;19924;-87
2022/05/02 08:47:53;;;;;;;;;;;35.30;19.20;;;;;;5083935;28;19912;-87
2022/05/02 08:50:23;;;;;;;;;;;35.40;19.00;;;;;;5088468;28;20379;-88
2022/05/02 08:53:00;;;;;;;;;;;35.60;18.90;;;;;;5092093;28;19996;-87
2022/05/02 08:55:37;;;;;;;;;;;35.90;19.00;;;;;;5085377;28;20028;-87
2022/05/02 08:58:13;;;;;;;;;;;36.20;18.20;;;;;;5076413;28;19955;-88
2022/05/02 09:00:42;;;;;;;;;;;36.20;17.60;;;;;;5081221;28;19924;-86
2022/05/02 09:03:17;;;;;;;;;;;36.30;17.70;;;;;;5091313;28;20382;-87
2022/05/02 09:06:12;;;;;;;;;;;36.30;17.80;;;;;;5084610;28;19989;-87
2022/05/02 09:08:56;;;;;;;;;;;36.50;18.30;;;;;;5091002;28;19920;-88
2022/05/02 09:11:40;;;;;;;;;;;36.80;17.80;;;;;;5081757;28;19916;-87
2022/05/02 09:14:06;;;;;;;;;;;36.90;17.20;;;;;;5088987;28;19927;-88
2022/05/02 09:16:50;;;;;;;;;;;36.90;17.00;;;;;;5080613;28;19935;-88
2022/05/02 09:19:15;;;;;;;;;;;36.90;16.80;;;;;;5089367;28;20004;-88
2022/05/02 09:21:40;;;;;;;;;;;36.90;16.70;;;;;;5091926;28;20411;-87
2022/05/02 09:24:25;;;;;;;;;;;37.10;16.40;;;;;;5079753;28;20011;-86
2022/05/02 09:27:09;;;;;;;;;;;36.80;16.30;;;;;;5073710;28;20314;-87
2022/05/02 09:29:44;;;;;;;;;;;36.80;16.90;;;;;;5074206;28;19954;-86
2022/05/02 09:32:21;;;;;;;;;;;37.00;16.70;;;;;;5070031;28;19916;-88
2022/05/02 09:35:02;;;;;;;;;;;37.20;16.70;;;;;;5087734;28;19916;-86
2022/05/02 09:37:40;;;;;;;;;;;37.20;16.20;;;;;;5088050;28;19924;-87
2022/05/02 09:40:10;;;;;;;;;;;37.20;16.50;;;;;;5083570;28;20406;-85
2022/05/02 09:42:39;;;;;;;;;;;37.20;16.00;;;;;;5090190;28;19974;-88
2022/05/02 09:51:32;;;;;;;;;;;37.60;15.90;;;;;;5087308;28;20030;-87
2022/05/02 09:56:37;;;;;;;;;;;37.50;16.20;;;;;;5077315;28;19917;-87
2022/05/02 09:57:02;;;;;;;;;;;37.80;16.10;;;;;;5078548;28;19919;-86
2022/05/02 09:59:29;;;;;;;;;;;37.80;15.70;;;;;;5081044;28;19913;-86
2022/05/02 10:02:01;;;;;;;;;;;37.70;15.80;;;;;;5076743;28;19928;-86
2022/05/02 10:04:32;;;;;;;;;;;37.60;16.10;;;;;;5094439;28;20287;-88
2022/05/02 10:07:05;;;;;;;;;;;37.80;16.40;;;;;;5081367;28;20443;-88
2022/05/02 10:09:30;;;;;;;;;;;38.00;16.50;;;;;;5092623;28;19920;-87
2022/05/02 10:12:07;;;;;;;;;;;38.30;16.40;;;;;;5079356;28;19923;-86
2022/05/02 10:14:35;;;;;;;;;;;38.40;16.00;;;;;;5069902;28;19920;-88
2022/05/02 10:17:04;;;;;;;;;;;38.30;15.90;;;;;;5093492;28;19916;-88
2022/05/02 10:19:38;;;;;;;;;;;38.30;15.90;;;;;;5090887;28;20269;-87
2022/05/02 10:22:16;;;;;;;;;;;38.40;16.10;;;;;;5078775;28;20279;-87
2022/05/02 10:25:03;;;;;;;;;;;38.70;15.70;;;;;;5080540;28;20021;-87
2022/05/02 10:27:47;;;;;;;;;;;38.70;15.50;;;;;;5081522;28;19920;-88
2022/05/02 10:30:13;;;;;;;;;;;38.50;15.70;;;;;;5085101;28;19960;-87
2022/05/02 10:32:43;;;;;;;;;;;38.40;15.60;;;;;;5093093;28;19955;-87
2022/05/02 10:35:15;;;;;;;;;;;38.30;15.70;;;;;;5092384;28;20003;-87
2022/05/02 10:37:42;;;;;;;;;;;38.40;15.80;;;;;;5093194;28;19927;-86
2022/05/02 10:40:15;;;;;;;;;;;38.60;15.50;;;;;;5093976;28;19916;-86
2022/05/02 10:42:51;;;;;;;;;;;38.60;15.40;;;;;;5085240;28;19973;-86
2022/05/02 10:45:16;;;;;;;;;;;38.50;15.30;;;;;;5092960;28;19947;-87
2022/05/02 10:47:45;;;;;;;;;;;38.00;15.20;;;;;;5082789;28;20275;-86
2022/05/02 10:50:18;;;;;;;;;;;37.80;15.70;;;;;;5083685;28;19916;-87
2022/05/02 10:52:50;;;;;;;;;;;37.90;15.90;;;;;;5077678;28;19920;-88
2022/05/02 10:55:19;;;;;;;;;;;38.30;16.00;;;;;;5081297;28;19967;-87
2022/05/02 10:57:46;;;;;;;;;;;38.70;15.60;;;;;;5076694;28;19916;-87
2022/05/02 11:00:12;;;;;;;;;;;39.10;15.40;;;;;;5091017;28;19923;-87
2022/05/02 11:02:56;;;;;;;;;;;39.20;15.40;;;;;;5092917;28;19916;-87
2022/05/02 11:05:25;;;;;;;;;;;39.30;15.10;;;;;;5090249;28;20359;-87
2022/05/02 11:07:57;;;;;;;;;;;38.70;15.20;;;;;;5092459;28;19916;-87
2022/05/02 11:10:26;;;;;;;;;;;37.70;15.40;;;;;;5077582;28;20373;-88
2022/05/02 11:12:51;;;;;;;;;;;36.70;16.20;;;;;;5079933;28;19912;-86
2022/05/02 11:15:18;;;;;;;;;;;36.70;16.80;;;;;;5081807;28;20321;-87
2022/05/02 11:17:54;;;;;;;;;;;37.20;16.70;;;;;;5079782;28;20346;-88
2022/05/02 11:23:24;;;;;;;;;;;37.80;16.00;;;;;;5092747;28;20382;-88
2022/05/02 11:25:58;;;;;;;;;;;37.50;15.90;;;;;;5087370;28;19916;-87
2022/05/02 11:28:34;;;;;;;;;;;36.60;16.40;;;;;;5092505;28;19953;-88
2022/05/02 11:31:07;;;;;;;;;;;35.90;17.00;;;;;;5078609;28;19916;-86
2022/05/02 11:33:42;;;;;;;;;;;35.20;17.50;;;;;;5080138;28;20272;-87
2022/05/02 11:36:12;;;;;;;;;;;35.20;17.80;;;;;;5074094;28;19916;-87
2022/05/02 11:39:02;;;;;;;;;;;35.70;17.80;;;;;;5092724;28;19920;-88
2022/05/02 11:41:28;;;;;;;;;;;36.30;17.60;;;;;;5076492;28;20419;-87
2022/05/02 11:44:06;;;;;;;;;;;36.00;17.40;;;;;;5093938;28;19923;-86
2022/05/02 11:46:35;;;;;;;;;;;35.50;17.80;;;;;;5088661;28;20005;-87
2022/05/02 11:49:12;;;;;;;;;;;35.30;18.10;;;;;;5091249;28;19924;-87
2022/05/02 11:51:38;;;;;;;;;;;35.10;18.20;;;;;;5089882;28;19919;-89
2022/05/02 11:54:07;;;;;;;;;;;35.00;18.50;;;;;;5073543;28;19923;-87
2022/05/02 11:56:39;;;;;;;;;;;34.80;18.50;;;;;;5077449;28;19920;-86
2022/05/02 11:59:11;;;;;;;;;;;34.40;18.50;;;;;;5088675;28;19921;-87
2022/05/02 12:01:40;;;;;;;;;;;34.10;18.80;;;;;;5076701;28;19954;-88
2022/05/02 12:04:06;;;;;;;;;;;33.90;19.00;;;;;;5093722;28;19920;-86
2022/05/02 12:06:41;;;;;;;;;;;33.70;19.30;;;;;;5077703;28;19912;-85
2022/05/02 12:09:17;;;;;;;;;;;33.40;19.20;;;;;;5084476;28;19943;-87
2022/05/02 12:11:53;;;;;;;;;;;33.10;19.40;;;;;;5081467;28;19923;-86
2022/05/02 12:14:21;;;;;;;;;;;32.80;19.50;;;;;;5092589;28;20565;-87
2022/05/02 12:17:06;;;;;;;;;;;32.80;19.80;;;;;;5095106;28;19978;-88
2022/05/02 12:19:33;;;;;;;;;;;33.30;19.70;;;;;;5070917;28;19924;-88
2022/05/02 12:22:00;;;;;;;;;;;33.30;19.80;;;;;;5074068;28;19924;-88
2022/05/02 12:24:33;;;;;;;;;;;33.30;19.80;;;;;;5071434;28;19920;-87
2022/05/02 12:26:59;;;;;;;;;;;33.20;19.30;;;;;;5074680;28;20393;-87
2022/05/02 12:29:25;;;;;;;;;;;32.60;19.60;;;;;;5080465;28;19924;-87
2022/05/02 12:31:57;;;;;;;;;;;32.20;19.90;;;;;;5095324;28;19985;-87
2022/05/02 12:34:34;;;;;;;;;;;31.70;20.30;;;;;;5084317;28;19920;-88
2022/05/02 12:37:02;;;;;;;;;;;31.20;20.70;;;;;;5091410;28;20379;-88
2022/05/02 12:39:31;;;;;;;;;;;30.90;21.20;;;;;;5080470;28;20327;-88
2022/05/02 12:42:19;;;;;;;;;;;31.60;21.20;;;;;;5089231;28;19916;-88
2022/05/02 12:44:44;;;;;;;;;;;32.50;20.50;;;;;;5077351;28;19924;-87
2022/05/02 12:47:14;;;;;;;;;;;33.30;20.00;;;;;;5090127;28;19916;-87
2022/05/02 12:49:52;;;;;;;;;;;33.80;19.50;;;;;;5083507;28;19912;-88
2022/05/02 12:52:18;;;;;;;;;;;34.40;19.00;;;;;;5090847;28;19958;-87
2022/05/02 12:54:48;;;;;;;;;;;34.70;18.90;;;;;;5089185;28;19912;-87
2022/05/02 13:02:45;;;;;;;;;;;35.40;18.20;;;;;;5090178;28;19977;-88
2022/05/02 13:05:11;;;;;;;;;;;35.10;18.60;;;;;;5087978;28;19912;-88
2022/05/02 13:07:42;;;;;;;;;;;35.00;18.90;;;;;;5088494;28;19953;-88
2022/05/02 13:10:13;;;;;;;;;;;35.20;19.10;;;;;;5078027;28;20041;-88
2022/05/02 13:12:39;;;;;;;;;;;35.80;18.90;;;;;;5070208;28;20527;-88
2022/05/02 13:15:04;;;;;;;;;;;36.40;18.40;;;;;;5073847;28;20023;-88
2022/05/02 13:17:31;;;;;;;;;;;36.60;17.80;;;;;;5073870;28;20360;-88
2022/05/02 13:19:58;;;;;;;;;;;36.60;17.20;;;;;;5091304;28;19952;-87
2022/05/02 13:22:23;;;;;;;;;;;36.30;17.50;;;;;;5067345;28;19921;-89
2022/05/02 13:24:50;;;;;;;;;;;36.10;17.90;;;;;;5090077;28;20291;-89
2022/05/02 13:27:26;;;;;;;;;;;36.40;17.70;;;;;;5081887;28;19955;-88
2022/05/02 13:30:05;;;;;;;;;;;36.60;17.20;;;;;;5092843;28;19987;-87
2022/05/02 13:32:41;;;;;;;;;;;36.80;17.10;;;;;;5079459;28;19927;-88
2022/05/02 13:35:16;;;;;;;;;;;36.70;16.80;;;;;;5095187;28;20355;-88
2022/05/02 13:37:49;;;;;;;;;;;36.50;16.90;;;;;;5092448;28;19977;-88
2022/05/02 13:40:16;;;;;;;;;;;36.20;16.90;;;;;;5089986;28;19920;-86
2022/05/02 13:42:41;;;;;;;;;;;35.10;17.60;;;;;;5090787;28;19924;-87
2022/05/02 13:45:15;;;;;;;;;;;34.60;18.10;;;;;;5092153;28;20019;-87
2022/05/02 13:47:51;;;;;;;;;;;34.40;18.30;;;;;;5089088;28;19965;-87
2022/05/02 13:50:23;;;;;;;;;;;34.70;18.40;;;;;;5079206;28;20380;-87
2022/05/02 13:52:54;;;;;;;;;;;34.90;18.20;;;;;;5092756;28;19966;-87
2022/05/02 13:55:27;;;;;;;;;;;35.00;18.20;;;;;;5090300;28;19920;-87
2022/05/02 13:57:53;;;;;;;;;;;34.50;18.50;;;;;;5088180;28;19950;-87
2022/05/02 14:03:15;;;;;;;;;;;33.50;19.30;;;;;;5093408;28;20001;-86
2022/05/02 14:05:50;;;;;;;;;;;33.10;19.50;;;;;;5086277;28;19999;-88
2022/05/02 14:08:18;;;;;;;;;;;32.60;19.80;;;;;;5092492;28;19916;-88
2022/05/02 14:10:50;;;;;;;;;;;32.20;20.40;;;;;;5092486;28;19936;-88
2022/05/02 14:13:16;;;;;;;;;;;32.00;20.60;;;;;;5095120;28;19977;-86
2022/05/02 14:15:43;;;;;;;;;;;31.80;20.90;;;;;;5092328;28;19921;-87
2022/05/02 14:18:16;;;;;;;;;;;31.60;21.10;;;;;;5078300;28;19942;-87
2022/05/02 14:20:42;;;;;;;;;;;31.40;21.20;;;;;;5085130;28;19961;-86
2022/05/02 14:23:08;;;;;;;;;;;31.20;21.20;;;;;;5079995;28;19924;-86
2022/05/02 14:25:34;;;;;;;;;;;31.10;21.50;;;;;;5080032;28;19965;-87
2022/05/02 14:28:06;;;;;;;;;;;31.00;21.60;;;;;;5092991;28;19962;-88
2022/05/02 14:30:37;;;;;;;;;;;30.80;21.80;;;;;;5091985;28;19920;-88
2022/05/02 14:33:06;;;;;;;;;;;30.70;22.00;;;;;;5080015;28;19922;-87
2022/05/02 14:35:40;;;;;;;;;;;30.50;22.00;;;;;;5092905;28;19951;-88
2022/05/02 14:38:07;;;;;;;;;;;30.60;22.20;;;;;;5081030;28;19977;-87
2022/05/02 14:40:35;;;;;;;;;;;30.60;22.20;;;;;;5081566;28;19923;-87
2022/05/02 14:43:01;;;;;;;;;;;30.60;22.30;;;;;;5077228;28;19970;-88
2022/05/02 14:45:27;;;;;;;;;;;30.60;22.30;;;;;;5091080;28;19922;-88
2022/05/02 14:47:53;;;;;;;;;;;30.60;22.40;;;;;;5072499;28;19920;-88
2022/05/02 14:50:19;;;;;;;;;;;30.50;22.60;;;;;;5073213;28;20287;-88
2022/05/02 14:52:46;;;;;;;;;;;30.50;22.60;;;;;;5092400;28;19920;-87
2022/05/02 14:55:11;;;;;;;;;;;30.40;22.70;;;;;;5070323;28;19912;-87
2022/05/02 14:57:40;;;;;;;;;;;30.30;22.90;;;;;;5082779;28;19916;-87
2022/05/02 15:00:11;;;;;;;;;;;30.10;23.10;;;;;;5078769;28;19916;-87
2022/05/02 15:02:37;;;;;;;;;;;30.00;23.20;;;;;;5086192;28;20050;-87
2022/05/02 15:05:03;;;;;;;;;;;29.70;23.50;;;;;;5093131;28;19962;-88